Time;durP1;ratioP1;P1;durP2;ratioP2;P2;SDS_P1;SDS_P2;PMS_P1;PMS_P2;Temp;Humidity;BMP_temperature;BMP_pressure;BME280_temperature;BME280_humidity;BME280_pressure;Samples;Min_cycle;Max_cycle;Signal;HPM_P1;HPM_P2
2021/05/29 00:01:11;;;;;;;36.28;20.10;;;;;;;16.09;77.09;99109.34;5015762;28;20037;-73
2021/05/29 00:03:36;;;;;;;30.35;19.58;;;;;;;16.07;77.34;99114.81;5016227;28;20099;-80
2021/05/29 00:06:02;;;;;;;35.35;20.08;;;;;;;16.05;77.47;99121.31;5016118;28;20041;-74
2021/05/29 00:08:29;;;;;;;37.42;20.30;;;;;;;15.97;77.25;99114.16;5016171;28;20034;-72
2021/05/29 00:10:56;;;;;;;37.05;20.65;;;;;;;15.93;77.43;99111.00;5015941;28;20410;-72
2021/05/29 00:13:23;;;;;;;41.60;23.23;;;;;;;15.84;77.61;99117.34;5015929;28;20455;-77
2021/05/29 00:15:50;;;;;;;48.10;21.38;;;;;;;15.74;77.70;99121.94;5015697;28;20397;-72
2021/05/29 00:18:16;;;;;;;43.72;23.95;;;;;;;15.62;78.28;99116.94;5015461;28;20045;-72
2021/05/29 00:20:43;;;;;;;42.40;20.65;;;;;;;15.53;78.96;99116.09;5015725;28;20034;-73
2021/05/29 00:23:12;;;;;;;39.72;23.83;;;;;;;15.51;79.42;99111.94;5018224;28;20073;-74
2021/05/29 00:25:40;;;;;;;38.40;24.08;;;;;;;15.52;79.31;99108.28;5035179;28;20037;-75
2021/05/29 00:28:05;;;;;;;42.38;25.67;;;;;;;15.51;79.21;99111.94;5034980;28;20128;-73
2021/05/29 00:30:50;;;;;;;38.28;21.50;;;;;;;15.48;78.57;99101.63;5034789;28;20087;-74
2021/05/29 00:33:16;;;;;;;36.35;21.27;;;;;;;15.43;79.12;99106.63;5034990;28;20120;-74
2021/05/29 00:35:41;;;;;;;43.35;23.23;;;;;;;15.43;79.21;99114.59;5035564;28;20044;-72
2021/05/29 00:38:08;;;;;;;42.95;22.73;;;;;;;15.43;79.31;99109.28;5033888;28;20057;-75
2021/05/29 00:40:34;;;;;;;39.65;21.85;;;;;;;15.41;79.67;99105.94;5035262;28;20355;-75
2021/05/29 00:43:00;;;;;;;35.92;22.48;;;;;;;15.44;79.56;99100.25;5035233;28;20041;-73
2021/05/29 00:45:27;;;;;;;35.05;21.27;;;;;;;15.47;79.80;99105.28;5034930;28;20057;-75
2021/05/29 00:47:54;;;;;;;44.13;22.15;;;;;;;15.48;79.98;99101.63;5035079;28;20478;-72
2021/05/29 00:50:19;;;;;;;33.08;20.38;;;;;;;15.52;80.08;99102.94;5034622;28;20033;-76
2021/05/29 00:52:46;;;;;;;40.83;21.70;;;;;;;15.58;79.54;99112.94;5035184;28;20039;-71
2021/05/29 00:55:14;;;;;;;41.95;20.75;;;;;;;15.64;79.44;99111.47;5033530;28;20041;-72
2021/05/29 00:57:42;;;;;;;35.30;20.23;;;;;;;15.68;78.99;99107.47;5034904;28;20041;-71
2021/05/29 01:00:09;;;;;;;35.88;19.98;;;;;;;15.68;78.36;99102.13;5034628;28;20128;-69
2021/05/29 01:02:35;;;;;;;32.63;19.73;;;;;;;15.65;77.78;99097.97;5034746;28;20065;-71
2021/05/29 01:05:02;;;;;;;36.08;20.73;;;;;;;15.62;77.82;99097.47;5034929;28;20033;-73
2021/05/29 01:07:28;;;;;;;35.25;22.23;;;;;;;15.55;78.10;99091.13;5012974;28;20088;-76
2021/05/29 01:09:55;;;;;;;38.20;21.33;;;;;;;15.50;78.01;99094.28;4996179;28;20042;-71
2021/05/29 01:12:20;;;;;;;36.03;21.45;;;;;;;15.47;77.93;99099.94;4995229;28;20034;-73
2021/05/29 01:14:58;;;;;;;35.60;21.88;;;;;;;15.49;77.88;99097.97;4995016;28;20427;-74
2021/05/29 01:17:26;;;;;;;35.47;21.25;;;;;;;15.54;77.84;99095.63;4994860;28;20089;-71
2021/05/29 01:19:52;;;;;;;38.55;20.80;;;;;;;15.62;77.76;99103.63;4994917;28;20501;-74
2021/05/29 01:22:42;;;;;;;36.92;21.75;;;;;;;15.66;77.36;99094.31;4993170;28;20026;-71
2021/05/29 01:25:28;;;;;;;43.17;22.30;;;;;;;15.68;77.44;99094.97;5032268;28;20037;-74
2021/05/29 01:28:19;;;;;;;31.40;19.67;;;;;;;15.71;77.44;99095.63;5034110;28;20463;-72
2021/05/29 01:30:47;;;;;;;32.08;19.17;;;;;;;15.73;77.78;99091.81;5033704;28;20037;-72
2021/05/29 01:33:33;;;;;;;35.05;19.65;;;;;;;15.81;77.57;99090.97;5033870;28;20447;-72
2021/05/29 01:36:08;;;;;;;29.45;18.30;;;;;;;15.74;76.63;99080.16;5034080;28;20033;-72
2021/05/29 01:38:35;;;;;;;29.15;18.08;;;;;;;15.62;76.75;99068.97;5032885;28;20033;-72
2021/05/29 01:41:03;;;;;;;29.35;18.05;;;;;;;15.62;76.94;99065.47;5033704;28;20042;-72
2021/05/29 01:43:29;;;;;;;31.42;18.80;;;;;;;15.71;77.15;99066.31;5034016;28;20045;-74
2021/05/29 01:45:55;;;;;;;33.22;19.05;;;;;;;15.76;76.90;99061.31;5033585;28;20048;-73
2021/05/29 01:48:21;;;;;;;34.88;19.00;;;;;;;15.81;76.65;99061.63;5033693;28;20040;-74
2021/05/29 01:50:52;;;;;;;32.33;18.60;;;;;;;15.81;77.21;99061.63;5034218;28;20037;-70
2021/05/29 01:53:22;;;;;;;27.42;18.17;;;;;;;15.91;76.99;99064.16;5033773;28;20065;-72
2021/05/29 01:55:48;;;;;;;28.60;18.33;;;;;;;16.04;76.47;99060.97;5033653;28;20098;-71
2021/05/29 01:58:18;;;;;;;28.25;18.13;;;;;;;16.16;76.05;99060.47;5032299;28;20465;-74
2021/05/29 02:00:44;;;;;;;30.33;18.65;;;;;;;16.26;75.66;99052.28;5033591;28;20065;-71
2021/05/29 02:03:10;;;;;;;34.22;18.52;;;;;;;16.37;75.61;99061.75;5033533;28;20077;-70
2021/05/29 02:05:37;;;;;;;30.40;18.67;;;;;;;16.43;75.22;99063.72;5033672;28;20038;-72
2021/05/29 02:08:06;;;;;;;28.55;18.48;;;;;;;16.52;74.97;99075.22;5033396;28;20045;-71
2021/05/29 02:10:33;;;;;;;32.70;18.05;;;;;;;16.60;75.11;99072.53;5033213;28;20041;-70
2021/05/29 02:13:01;;;;;;;26.13;17.65;;;;;;;16.68;74.70;99065.50;5033424;28;20486;-72
2021/05/29 02:15:32;;;;;;;29.15;17.15;;;;;;;16.74;74.41;99070.13;5031578;28;20120;-71
2021/05/29 02:18:05;;;;;;;26.52;16.10;;;;;;;16.75;73.76;99063.81;5032858;28;20069;-72
2021/05/29 02:20:52;;;;;;;27.77;17.55;;;;;;;16.70;73.85;99063.47;5033187;28;20478;-69
2021/05/29 02:23:23;;;;;;;29.88;17.65;;;;;;;16.62;74.02;99070.53;5029121;28;20038;-69
2021/05/29 02:25:51;;;;;;;29.63;17.98;;;;;;;16.55;74.39;99061.53;5012923;28;20057;-69
2021/05/29 02:28:18;;;;;;;29.65;17.90;;;;;;;16.54;74.35;99057.19;5013310;28;20037;-70
2021/05/29 02:30:44;;;;;;;32.08;18.50;;;;;;;16.53;74.61;99060.84;5012971;28;20113;-72
2021/05/29 02:33:10;;;;;;;29.95;19.38;;;;;;;16.49;74.81;99056.88;5012744;28;20390;-72
2021/05/29 02:35:36;;;;;;;31.85;19.70;;;;;;;16.44;74.94;99053.91;5013268;28;20041;-73
2021/05/29 02:38:03;;;;;;;33.22;18.27;;;;;;;16.53;74.87;99062.72;5013209;28;20026;-72
2021/05/29 02:40:29;;;;;;;27.80;17.63;;;;;;;16.67;74.56;99059.31;5012901;28;20045;-70
2021/05/29 02:42:55;;;;;;;34.28;18.45;;;;;;;16.79;74.22;99054.41;5012884;28;20038;-71
2021/05/29 02:45:21;;;;;;;29.73;18.38;;;;;;;16.84;73.78;99054.72;5012560;28;20037;-72
2021/05/29 02:47:47;;;;;;;31.92;18.38;;;;;;;16.89;73.68;99052.38;5012403;28;20116;-71
2021/05/29 02:50:14;;;;;;;35.08;19.15;;;;;;;16.92;73.51;99056.56;5011074;28;20530;-71
2021/05/29 02:52:41;;;;;;;38.85;19.35;;;;;;;16.96;73.35;99057.88;5013049;28;20034;-73
2021/05/29 02:55:09;;;;;;;31.63;18.17;;;;;;;16.94;73.55;99050.03;5012617;28;20040;-75
2021/05/29 02:57:35;;;;;;;31.73;18.00;;;;;;;16.98;73.28;99046.03;5012708;28;20053;-73
2021/05/29 03:00:03;;;;;;;31.13;18.83;;;;;;;16.96;73.34;99048.03;5012547;28;20077;-71
2021/05/29 03:02:29;;;;;;;29.05;18.40;;;;;;;16.96;73.33;99045.34;5012681;28;20069;-73
2021/05/29 03:04:55;;;;;;;28.02;18.00;;;;;;;16.97;73.44;99041.69;5012900;28;20034;-70
2021/05/29 03:07:20;;;;;;;31.67;18.50;;;;;;;17.06;73.65;99047.81;5012396;28;20041;-71
2021/05/29 03:09:46;;;;;;;34.03;18.48;;;;;;;17.10;73.50;99048.28;5012373;28;20037;-70
2021/05/29 03:12:12;;;;;;;33.15;19.70;;;;;;;17.05;74.21;99048.00;5012104;28;20083;-72
2021/05/29 03:14:38;;;;;;;38.88;18.52;;;;;;;17.09;74.44;99047.44;5012237;28;20042;-70
2021/05/29 03:17:04;;;;;;;30.05;18.48;;;;;;;17.23;73.90;99040.50;5012224;28;20034;-72
2021/05/29 03:19:30;;;;;;;32.58;18.02;;;;;;;17.38;73.49;99039.75;5011895;28;20033;-73
2021/05/29 03:21:55;;;;;;;31.80;19.25;;;;;;;17.36;73.28;99036.41;5011742;28;20383;-75
2021/05/29 03:24:21;;;;;;;34.40;19.63;;;;;;;17.34;73.36;99041.13;5024460;28;20033;-70
2021/05/29 03:26:47;;;;;;;36.78;19.27;;;;;;;17.35;73.49;99034.78;5031648;28;20099;-73
2021/05/29 03:29:13;;;;;;;35.60;19.08;;;;;;;17.34;73.26;99031.25;5031343;28;20077;-70
2021/05/29 03:31:39;;;;;;;33.65;19.88;;;;;;;17.42;73.00;99033.03;5031510;28;20523;-73
2021/05/29 03:34:05;;;;;;;38.55;20.00;;;;;;;17.59;73.20;99037.22;5032116;28;20117;-70
2021/05/29 03:36:31;;;;;;;34.15;18.80;;;;;;;17.71;73.03;99034.16;5030636;28;20128;-71
2021/05/29 03:38:58;;;;;;;33.17;19.08;;;;;;;17.86;72.87;99035.00;5032085;28;20091;-70
2021/05/29 03:41:24;;;;;;;29.40;18.77;;;;;;;18.01;72.46;99032.38;5030130;28;20433;-70
2021/05/29 03:43:49;;;;;;;32.67;19.73;;;;;;;18.23;71.83;99027.13;5031487;28;20374;-69
2021/05/29 03:46:15;;;;;;;37.35;19.75;;;;;;;18.39;70.56;99035.00;5031684;28;20034;-73
2021/05/29 03:48:41;;;;;;;45.72;22.52;;;;;;;18.56;68.53;99027.59;5031406;28;20041;-73
2021/05/29 03:51:07;;;;;;;36.97;21.58;;;;;;;18.77;68.52;99028.66;5031653;28;20371;-72
2021/05/29 03:53:33;;;;;;;41.03;22.52;;;;;;;18.90;67.62;99018.16;5031536;28;20033;-71
2021/05/29 03:55:59;;;;;;;42.40;21.42;;;;;;;19.14;67.14;99021.50;5031665;28;20048;-71
2021/05/29 03:58:25;;;;;;;45.92;20.63;;;;;;;19.37;66.60;99012.44;5031700;28;20041;-73
2021/05/29 04:00:51;;;;;;;39.00;20.25;;;;;;;19.49;66.45;99018.94;5031524;28;20041;-70
2021/05/29 04:03:16;;;;;;;37.42;21.00;;;;;;;19.68;66.19;99024.69;5031576;28;20033;-72
2021/05/29 04:05:42;;;;;;;42.63;22.20;;;;;;;20.14;64.64;99016.16;5030991;28;20401;-75
2021/05/29 04:08:08;;;;;;;42.42;21.42;;;;;;;20.49;63.98;99010.75;5027892;28;20038;-71
2021/05/29 04:10:36;;;;;;;39.47;22.60;;;;;;;21.52;60.98;99008.16;5010107;28;20096;-71
2021/05/29 04:13:02;;;;;;;40.50;23.40;;;;;;;22.36;57.78;99003.94;5009747;28;20034;-72
2021/05/29 04:15:28;;;;;;;42.30;22.85;;;;;;;23.89;54.07;99006.00;5009902;28;20038;-72
2021/05/29 04:17:54;;;;;;;35.33;21.73;;;;;;;24.50;52.12;99009.75;5011429;28;20049;-75
2021/05/29 04:20:23;;;;;;;43.80;23.13;;;;;;;24.35;51.31;99012.81;5011312;28;20037;-73
2021/05/29 04:22:50;;;;;;;42.30;22.90;;;;;;;24.25;51.13;99004.41;5011641;28;20037;-73
2021/05/29 04:25:19;;;;;;;41.50;22.73;;;;;;;25.01;49.76;99004.13;5031517;28;20128;-71
2021/05/29 04:27:45;;;;;;;34.33;21.25;;;;;;;25.79;46.89;99004.22;5031178;28;20049;-75
2021/05/29 04:30:15;;;;;;;30.80;19.95;;;;;;;25.80;46.27;98992.31;5030868;28;20544;-76
2021/05/29 04:32:41;;;;;;;34.78;19.48;;;;;;;25.30;46.99;98994.34;5029726;28;20038;-74
2021/05/29 04:35:08;;;;;;;29.92;20.40;;;;;;;25.64;46.92;98991.94;5031002;28;20096;-71
2021/05/29 04:37:34;;;;;;;31.95;20.20;;;;;;;26.08;45.96;98990.78;5029805;28;20037;-74
2021/05/29 04:40:00;;;;;;;33.45;19.50;;;;;;;25.89;45.89;98993.59;5031202;28;20521;-74
2021/05/29 04:42:27;;;;;;;29.77;19.70;;;;;;;25.43;47.01;98993.31;5033503;28;20037;-73
2021/05/29 04:44:53;;;;;;;30.95;21.48;;;;;;;25.11;47.94;98988.16;5035071;28;20044;-75
2021/05/29 04:47:19;;;;;;;28.70;18.95;;;;;;;24.82;48.75;98981.69;5034749;28;20040;-76
2021/05/29 04:49:44;;;;;;;33.78;20.30;;;;;;;24.29;49.85;98989.41;5035206;28;20375;-72
2021/05/29 04:52:10;;;;;;;29.23;18.77;;;;;;;24.38;49.92;98979.09;5034684;28;20033;-73
2021/05/29 04:54:38;;;;;;;30.48;17.15;;;;;;;24.43;48.81;98987.38;5034882;28;20052;-72
2021/05/29 04:57:04;;;;;;;29.63;18.75;;;;;;;24.62;48.91;98980.03;5034726;28;20481;-74
2021/05/29 04:59:30;;;;;;;28.73;17.65;;;;;;;25.46;46.69;98975.78;5034198;28;20064;-77
2021/05/29 05:01:55;;;;;;;25.25;17.20;;;;;;;25.29;46.38;98976.44;5034876;28;20095;-74
2021/05/29 05:04:21;;;;;;;23.38;15.95;;;;;;;25.08;46.32;98968.88;5032880;28;20048;-78
2021/05/29 05:06:47;;;;;;;24.98;15.45;;;;;;;24.77;46.49;98973.44;5033277;28;20033;-75
2021/05/29 05:09:13;;;;;;;22.10;14.52;;;;;;;24.57;46.15;98977.22;5033965;28;20038;-73
2021/05/29 05:11:39;;;;;;;18.15;13.40;;;;;;;23.89;46.99;98976.28;5034300;28;20029;-77
2021/05/29 05:14:05;;;;;;;22.77;13.52;;;;;;;23.46;48.02;98985.16;5034386;28;20049;-73
2021/05/29 05:16:31;;;;;;;26.67;14.82;;;;;;;23.41;48.33;98981.28;5034229;28;20122;-71
2021/05/29 05:18:56;;;;;;;20.23;14.25;;;;;;;23.35;48.06;98971.34;5034191;28;20128;-75
2021/05/29 05:21:23;;;;;;;24.90;14.90;;;;;;;23.20;48.64;98970.81;5034120;28;20037;-74
2021/05/29 05:23:51;;;;;;;20.85;14.93;;;;;;;23.15;48.96;98970.63;5026175;28;20032;-79
2021/05/29 05:26:17;;;;;;;28.30;15.82;;;;;;;23.25;48.45;98965.59;5014416;28;20061;-74
2021/05/29 05:28:44;;;;;;;20.00;15.93;;;;;;;23.34;48.29;98966.16;5013471;28;20185;-71
2021/05/29 05:31:15;;;;;;;22.25;16.02;;;;;;;23.40;48.04;98957.19;5014052;28;20045;-75
2021/05/29 05:33:46;;;;;;;24.45;16.40;;;;;;;23.38;48.21;98964.69;5013388;28;20350;-75
2021/05/29 05:36:13;;;;;;;21.77;15.05;;;;;;;23.51;47.77;98961.03;5013153;28;20084;-76
2021/05/29 05:38:41;;;;;;;23.33;16.50;;;;;;;23.72;47.13;98966.03;5014143;28;20046;-72
2021/05/29 05:41:07;;;;;;;23.58;15.60;;;;;;;24.29;45.84;98956.13;5013297;28;20038;-73
2021/05/29 05:43:34;;;;;;;21.13;15.67;;;;;;;24.60;45.46;98957.84;5013777;28;20041;-81
2021/05/29 05:46:00;;;;;;;19.98;14.75;;;;;;;24.36;45.40;98957.72;5012675;28;20533;-74
2021/05/29 05:48:26;;;;;;;56.35;35.42;;;;;;;24.03;46.14;98964.31;5013427;28;20098;-73
2021/05/29 05:50:54;;;;;;;20.30;13.77;;;;;;;24.17;44.64;98958.78;5013018;28;20129;-76
2021/05/29 05:53:22;;;;;;;16.13;12.57;;;;;;;24.67;43.95;98957.78;5013360;28;20049;-72
2021/05/29 05:55:58;;;;;;;21.73;13.65;;;;;;;24.63;44.16;98951.16;5014290;28;20045;-75
2021/05/29 05:58:25;;;;;;;19.10;14.15;;;;;;;24.53;44.38;98951.69;5013771;28;20038;-71
2021/05/29 06:00:50;;;;;;;22.25;15.02;;;;;;;24.45;44.86;98955.53;5014025;28;20038;-74
2021/05/29 06:03:16;;;;;;;22.27;14.98;;;;;;;24.89;43.85;98952.69;5002554;28;20509;-76
2021/05/29 06:05:42;;;;;;;22.75;14.93;;;;;;;25.23;43.60;98954.91;4999019;28;20034;-72
2021/05/29 06:08:08;;;;;;;22.52;15.05;;;;;;;26.56;41.54;98938.09;4993901;28;20030;-76
2021/05/29 06:10:34;;;;;;;21.52;14.20;;;;;;;28.06;37.96;98943.31;4994078;28;20034;-71
2021/05/29 06:13:00;;;;;;;18.00;12.73;;;;;;;28.21;36.29;98945.41;4993946;28;20128;-72
2021/05/29 06:18:54;;;;;;;21.65;12.82;;;;;;;26.83;39.17;98934.00;4997315;28;20129;-73
2021/05/29 06:21:11;;;;;;;18.88;12.77;;;;;;;26.25;39.08;98942.09;4993645;28;20056;-72
2021/05/29 06:23:37;;;;;;;22.83;13.95;;;;;;;26.13;39.85;98947.53;5010758;28;20026;-72
2021/05/29 06:26:03;;;;;;;23.23;14.85;;;;;;;26.18;39.91;98944.13;5015840;28;20050;-72
2021/05/29 06:28:29;;;;;;;26.20;14.27;;;;;;;26.01;40.76;98947.53;4994804;28;20050;-77
2021/05/29 06:30:56;;;;;;;25.33;14.35;;;;;;;25.87;40.42;98956.97;4993887;28;20057;-73
2021/05/29 06:33:21;;;;;;;21.67;13.07;;;;;;;25.86;40.75;98953.44;4993603;28;20108;-71
2021/05/29 06:35:47;;;;;;;24.38;13.52;;;;;;;25.78;40.36;98951.94;5005951;28;20034;-70
2021/05/29 06:38:13;;;;;;;27.27;15.18;;;;;;;25.23;41.48;98947.59;5000098;28;20072;-76
2021/05/29 06:40:39;;;;;;;31.63;14.38;;;;;;;25.22;42.13;98945.94;5001429;28;20534;-73
2021/05/29 06:43:05;;;;;;;23.45;14.48;;;;;;;25.23;42.32;98950.28;5000732;28;20037;-73
2021/05/29 06:45:32;;;;;;;21.35;13.63;;;;;;;24.84;42.82;98952.56;4998305;28;20099;-74
2021/05/29 06:47:59;;;;;;;22.33;14.43;;;;;;;24.29;44.55;98946.16;4997220;28;20479;-74
2021/05/29 06:50:25;;;;;;;20.25;13.85;;;;;;;23.94;46.13;98948.63;5002757;28;20038;-74
2021/05/29 06:52:54;;;;;;;20.35;13.68;;;;;;;23.44;46.94;98950.31;4996703;28;20026;-77
2021/05/29 07:00:50;;;;;;;18.70;12.20;;;;;;;22.60;48.02;98945.84;4999818;28;20030;-75
2021/05/29 07:03:17;;;;;;;22.17;13.35;;;;;;;22.38;49.50;98942.63;4999755;28;20053;-76
2021/05/29 07:05:42;;;;;;;23.85;13.18;;;;;;;22.31;49.82;98939.09;5005608;28;20029;-76
2021/05/29 07:08:08;;;;;;;19.73;13.23;;;;;;;22.15;49.77;98943.09;4997645;28;20038;-75
2021/05/29 07:10:35;;;;;;;19.90;12.65;;;;;;;22.00;49.99;98929.88;5000398;28;20034;-74
2021/05/29 07:13:00;;;;;;;17.52;12.57;;;;;;;21.78;50.59;98932.84;5000989;28;20049;-76
2021/05/29 07:15:32;;;;;;;21.10;12.32;;;;;;;21.74;50.84;98936.16;4999001;28;20359;-73
2021/05/29 07:18:03;;;;;;;19.60;12.60;;;;;;;21.68;51.85;98935.09;4996688;28;20099;-76
2021/05/29 07:20:31;;;;;;;21.50;12.48;;;;;;;21.48;52.01;98935.09;4996485;28;20069;-72
2021/05/29 07:22:58;;;;;;;17.58;13.00;;;;;;;21.57;52.58;98933.06;4996924;28;20034;-74
2021/05/29 07:25:24;;;;;;;20.83;13.45;;;;;;;21.45;52.84;98933.66;4995382;28;20026;-74
2021/05/29 07:27:50;;;;;;;23.30;13.57;;;;;;;21.33;52.93;98938.84;4993967;28;20493;-72
2021/05/29 07:30:16;;;;;;;21.35;13.82;;;;;;;21.27;53.85;98944.19;4992605;28;20046;-77
2021/05/29 07:32:42;;;;;;;23.55;12.98;;;;;;;21.12;53.75;98944.41;4992715;28;20126;-73
2021/05/29 07:35:08;;;;;;;20.27;13.95;;;;;;;20.99;54.30;98940.66;4992703;28;20121;-75
2021/05/29 07:37:36;;;;;;;20.33;14.38;;;;;;;20.88;54.88;98943.13;4992636;28;20042;-75
2021/05/29 07:40:03;;;;;;;74.00;45.22;;;;;;;20.84;56.17;98945.41;4996633;28;20033;-77
2021/05/29 07:42:30;;;;;;;25.88;16.45;;;;;;;20.83;57.83;98943.72;5004571;28;20136;-77
2021/05/29 07:44:56;;;;;;;27.02;16.73;;;;;;;20.79;59.40;98942.50;4993639;28;20453;-76
2021/05/29 07:47:22;;;;;;;27.83;15.98;;;;;;;20.72;61.76;98945.16;4995716;28;20042;-74
2021/05/29 07:49:47;;;;;;;25.90;16.23;;;;;;;20.62;61.72;98947.38;4993007;28;20381;-76
2021/05/29 07:52:13;;;;;;;27.08;16.40;;;;;;;20.55;62.17;98947.34;5006722;28;20033;-75
2021/05/29 07:54:39;;;;;;;24.00;17.50;;;;;;;20.49;63.06;98942.78;5013071;28;20336;-76
2021/05/29 07:57:06;;;;;;;25.08;16.73;;;;;;;20.50;63.28;98952.50;5012463;28;20368;-75
2021/05/29 07:59:32;;;;;;;26.88;17.55;;;;;;;20.50;63.05;98947.13;5022410;28;20053;-75
2021/05/29 08:01:58;;;;;;;25.98;17.35;;;;;;;20.50;63.60;98945.25;5022781;28;20123;-79
2021/05/29 08:04:24;;;;;;;28.52;18.67;;;;;;;20.28;66.14;98938.38;5011963;28;20439;-75
2021/05/29 08:06:50;;;;;;;22.50;15.20;;;;;;;20.13;63.22;98942.00;5002997;28;20038;-73
2021/05/29 08:09:16;;;;;;;23.48;16.55;;;;;;;20.18;64.95;98942.22;5005927;28;20088;-76
2021/05/29 08:11:42;;;;;;;24.90;17.23;;;;;;;20.28;66.49;98943.72;5004307;28;20042;-77
2021/05/29 08:14:09;;;;;;;25.75;16.58;;;;;;;20.29;66.71;98942.72;4993938;28;20121;-77
2021/05/29 08:16:35;;;;;;;27.33;17.40;;;;;;;20.37;67.28;98937.16;4996870;28;20438;-74
2021/05/29 08:19:01;;;;;;;24.55;17.33;;;;;;;20.45;67.10;98934.31;5006755;28;20117;-77
2021/05/29 08:21:29;;;;;;;27.55;18.17;;;;;;;20.53;67.16;98923.34;5008492;28;20129;-76
2021/05/29 08:23:54;;;;;;;;;;;;;;;20.61;66.33;98927.75;5005486;28;20029;-75
2021/05/29 08:26:20;;;;;;;24.23;18.05;;;;;;;20.80;65.74;98930.72;5005249;28;19914;-73
2021/05/29 08:28:46;;;;;;;31.55;18.98;;;;;;;20.96;66.04;98921.41;5011574;28;20034;-75
2021/05/29 08:31:12;;;;;;;34.95;21.52;;;;;;;21.03;64.47;98929.50;5007811;28;20169;-75
2021/05/29 08:33:41;;;;;;;30.52;19.48;;;;;;;21.08;64.54;98925.16;5001940;28;20046;-74
2021/05/29 08:36:08;;;;;;;34.67;23.48;;;;;;;21.07;64.22;98931.59;5000544;28;20383;-74
2021/05/29 08:38:34;;;;;;;34.37;23.67;;;;;;;20.94;63.70;98929.69;5000358;28;20065;-77
2021/05/29 08:41:00;;;;;;;38.05;23.33;;;;;;;20.92;63.25;98936.31;4993894;28;20638;-73
2021/05/29 08:43:26;;;;;;;29.50;21.05;;;;;;;21.07;62.36;98928.06;4993688;28;20537;-74
2021/05/29 08:45:53;;;;;;;29.40;21.35;;;;;;;21.11;61.37;98927.44;4994805;28;20157;-73
2021/05/29 08:48:19;;;;;;;34.55;21.13;;;;;;;21.07;60.64;98934.28;4993927;28;20031;-75
2021/05/29 08:51:12;;;;;;;34.97;21.10;;;;;;;21.01;62.87;98937.78;4995830;28;20045;-75
2021/05/29 08:53:31;;;;;;;31.23;21.42;;;;;;;20.98;62.75;98938.19;4995554;28;20121;-76
2021/05/29 08:55:58;;;;;;;28.77;21.05;;;;;;;20.99;63.21;98940.66;4995702;28;20034;-75
2021/05/29 08:58:25;;;;;;;39.10;22.83;;;;;;;20.82;63.56;98934.84;4995370;28;20043;-75
2021/05/29 09:00:51;;;;;;;28.60;20.67;;;;;;;20.45;64.71;98922.72;4995621;28;20041;-76
2021/05/29 09:03:17;;;;;;;29.27;19.73;;;;;;;20.20;65.62;98913.34;4995707;28;20038;-74
2021/05/29 09:05:53;;;;;;;24.17;17.58;;;;;;;19.98;66.86;98917.16;4995432;28;20034;-74
2021/05/29 09:08:21;;;;;;;25.53;17.43;;;;;;;19.87;67.33;98913.16;4994956;28;20237;-74
2021/05/29 09:10:52;;;;;;;23.05;16.77;;;;;;;19.72;67.84;98923.97;4995447;28;20082;-74
2021/05/29 09:13:26;;;;;;;23.08;15.65;;;;;;;19.54;68.00;98922.63;4993873;28;20038;-74
2021/05/29 09:16:03;;;;;;;19.92;15.10;;;;;;;19.46;68.45;98919.25;4995511;28;20034;-73
2021/05/29 09:18:45;;;;;;;24.23;14.93;;;;;;;19.51;68.80;98923.00;4993466;28;20074;-73
2021/05/29 09:21:34;;;;;;;21.52;14.43;;;;;;;19.50;67.93;98918.69;4995277;28;20427;-73
2021/05/29 09:24:02;;;;;;;26.02;13.73;;;;;;;19.54;68.46;98922.63;5015151;28;20037;-74
2021/05/29 09:26:47;;;;;;;;;;;;;;;19.64;67.78;98921.44;5034803;28;20045;-77
2021/05/29 09:29:14;;;;;;;20.05;13.35;;;;;;;19.82;67.21;98916.41;5033322;28;19913;-77
2021/05/29 09:32:09;;;;;;;20.08;13.13;;;;;;;20.01;66.35;98912.22;5034081;28;20050;-74
2021/05/29 09:34:41;;;;;;;21.98;12.98;;;;;;;20.46;65.03;98903.72;5031283;28;20073;-78
2021/05/29 09:37:08;;;;;;;17.88;12.10;;;;;;;21.31;62.55;98914.00;5031890;28;20422;-74
2021/05/29 09:39:36;;;;;;;16.35;12.25;;;;;;;22.12;60.36;98905.81;5031590;28;20056;-75
2021/05/29 09:42:03;;;;;;;14.52;11.63;;;;;;;22.82;57.61;98901.53;5015357;28;20423;-74
2021/05/29 09:44:29;;;;;;;16.98;10.73;;;;;;;22.93;57.67;98890.06;5031376;28;20033;-76
2021/05/29 09:46:58;;;;;;;14.57;10.85;;;;;;;22.59;57.12;98889.44;5031518;28;20044;-82
2021/05/29 09:49:47;;;;;;;14.73;10.00;;;;;;;22.28;58.24;98888.31;5031447;28;20033;-77
2021/05/29 09:52:31;;;;;;;17.05;10.90;;;;;;;22.41;57.36;98882.09;5031351;28;20045;-80
2021/05/29 09:54:59;;;;;;;17.23;9.98;;;;;;;22.24;57.93;98887.13;5031581;28;20029;-78
2021/05/29 09:57:26;;;;;;;16.15;9.63;;;;;;;21.97;58.53;98898.00;5030971;28;20091;-76
2021/05/29 10:00:05;;;;;;;14.60;9.55;;;;;;;21.67;58.61;98890.41;5031612;28;20042;-75
2021/05/29 10:02:32;;;;;;;13.48;9.55;;;;;;;21.28;59.63;98900.97;5031080;28;20033;-74
2021/05/29 10:04:58;;;;;;;15.52;10.30;;;;;;;21.02;60.35;98893.72;5014600;28;20112;-73
2021/05/29 10:07:39;;;;;;;13.15;10.18;;;;;;;20.99;60.48;98888.75;5030903;28;20481;-75
2021/05/29 10:10:06;;;;;;;14.73;10.30;;;;;;;20.96;60.41;98887.31;5031474;28;20453;-75
2021/05/29 10:12:32;;;;;;;16.33;10.07;;;;;;;20.93;60.75;98884.22;5033047;28;20033;-73
2021/05/29 10:14:58;;;;;;;13.30;9.18;;;;;;;21.10;59.93;98882.75;5033797;28;20609;-75
2021/05/29 10:17:24;;;;;;;15.43;10.02;;;;;;;21.03;59.82;98881.94;5033305;28;20047;-72
2021/05/29 10:19:52;;;;;;;15.85;9.82;;;;;;;21.03;60.06;98879.25;5033370;28;20510;-74
2021/05/29 10:22:18;;;;;;;17.45;9.43;;;;;;;21.09;59.83;98886.47;5032160;28;20029;-76
2021/05/29 10:24:49;;;;;;;14.02;9.48;;;;;;;21.00;59.96;98872.41;5017343;28;20066;-77
2021/05/29 10:27:28;;;;;;;21.45;10.27;;;;;;;20.87;60.18;98867.03;5013090;28;20049;-76
2021/05/29 10:29:56;;;;;;;16.00;9.32;;;;;;;20.75;60.59;98865.97;5013729;28;20113;-77
2021/05/29 10:32:22;;;;;;;13.57;9.18;;;;;;;20.79;60.55;98869.94;5012018;28;20072;-76
2021/05/29 10:34:54;;;;;;;15.63;9.25;;;;;;;20.73;60.24;98860.81;5013613;28;20065;-79
2021/05/29 10:37:35;;;;;;;12.73;8.52;;;;;;;20.54;60.18;98862.41;5012901;28;20046;-75
2021/05/29 10:40:23;;;;;;;11.40;7.57;;;;;;;20.61;60.25;98857.03;5013054;28;20041;-75
2021/05/29 10:43:07;;;;;;;12.82;7.85;;;;;;;20.67;59.54;98866.97;5012883;28;20040;-72
2021/05/29 10:45:34;;;;;;;12.80;7.43;;;;;;;20.44;58.92;98860.13;5013009;28;20486;-74
2021/05/29 10:48:07;;;;;;;;;;;;;;;20.10;60.05;98867.25;5012212;28;20053;-72
2021/05/29 10:53:49;;;;;;;8.18;6.18;;;;;;;20.19;59.72;98868.72;5012977;28;20053;-74
2021/05/29 10:56:15;;;;;;;8.60;6.85;;;;;;;20.28;59.35;98863.16;5011572;28;20493;-75
2021/05/29 10:59:15;;;;;;;12.70;6.85;;;;;;;20.32;59.55;98853.66;5012909;28;20041;-74
2021/05/29 11:01:50;;;;;;;13.48;6.57;;;;;;;20.43;59.06;98857.63;5011708;28;20100;-73
2021/05/29 11:04:19;;;;;;;8.77;6.90;;;;;;;20.61;58.43;98849.81;5013149;28;20097;-75
2021/05/29 11:06:52;;;;;;;10.63;7.65;;;;;;;20.48;58.76;98863.22;5012878;28;20084;-74
2021/05/29 11:09:38;;;;;;;10.95;7.03;;;;;;;20.38;58.82;98863.59;5012718;28;20370;-73
2021/05/29 11:12:05;;;;;;;9.10;7.05;;;;;;;20.09;59.85;98879.00;5012135;28;20135;-75
2021/05/29 11:14:47;;;;;;;10.30;8.70;;;;;;;20.10;60.00;98883.34;5012475;28;20042;-79
2021/05/29 11:17:14;;;;;;;11.23;7.43;;;;;;;20.12;59.89;98867.84;5012765;28;20037;-81
2021/05/29 11:19:42;;;;;;;10.35;7.13;;;;;;;20.07;59.73;98864.94;5012160;28;20132;-73
2021/05/29 11:22:15;;;;;;;;;;;;;;;19.94;59.80;98864.88;5013158;28;20038;-76
2021/05/29 11:24:52;;;;;;;10.85;6.20;;;;;;;19.74;60.49;98868.28;5027614;28;19924;-74
2021/05/29 11:27:21;;;;;;;9.18;6.97;;;;;;;19.50;61.18;98877.59;5047376;28;20419;-74
2021/05/29 11:30:06;;;;;;;11.93;6.55;;;;;;;19.14;61.93;98884.78;5032396;28;20128;-74
2021/05/29 11:32:48;;;;;;;;;;;;;;;19.11;62.12;98893.19;5032403;28;20044;-77
2021/05/29 11:35:25;;;;;;;23.70;10.23;;;;;;;18.97;62.54;98892.25;5032229;28;19920;-73
2021/05/29 11:40:44;;;;;;;13.52;8.02;;;;;;;18.58;63.82;98886.28;5000841;28;20042;-75